Time;durP1;ratioP1;P1;durP2;ratioP2;P2;SDS_P1;SDS_P2;PMS_P1;PMS_P2;Temp;Humidity;BMP_temperature;BMP_pressure;BME280_temperature;BME280_humidity;BME280_pressure;Samples;Min_cycle;Max_cycle;Signal;HPM_P1;HPM_P2
2023/10/18 00:00:34;;;;;;;57.10;22.20;;;;;;;1.51;82.08;100505.11;130980;1298;22667;-79
2023/10/18 00:03:36;;;;;;;45.70;23.60;;;;;;;1.46;81.92;100502.65;130976;1298;22560;-79
2023/10/18 00:06:36;;;;;;;38.20;22.20;;;;;;;1.41;81.85;100506.15;131790;1290;22519;-79
2023/10/18 00:09:48;;;;;;;43.30;21.70;;;;;;;1.35;81.75;100508.98;131446;1301;22651;-78
2023/10/18 00:12:52;;;;;;;34.60;20.80;;;;;;;1.30;81.63;100509.25;130980;1301;24269;-79
2023/10/18 00:16:00;;;;;;;83.70;23.60;;;;;;;1.24;81.84;100504.58;130983;1301;22567;-78
2023/10/18 00:19:00;;;;;;;54.90;22.70;;;;;;;1.21;82.21;100502.87;131944;1301;22550;-78
2023/10/18 00:22:01;;;;;;;95.60;24.30;;;;;;;1.16;82.13;100503.35;130916;1301;23064;-78
2023/10/18 00:25:01;;;;;;;77.00;25.40;;;;;;;1.11;82.10;100505.42;130995;1298;22576;-79
2023/10/18 00:28:03;;;;;;;94.10;26.90;;;;;;;1.08;82.18;100505.77;130827;1297;22602;-79
2023/10/18 00:31:20;;;;;;;75.70;28.50;;;;;;;1.07;82.32;100502.35;131478;1299;22613;-78
2023/10/18 00:34:21;;;;;;;64.00;26.30;;;;;;;1.05;82.25;100504.92;130792;1302;25438;-78
2023/10/18 00:37:22;;;;;;;50.00;27.10;;;;;;;1.03;82.34;100496.20;130874;1301;22599;-79
2023/10/18 00:43:29;;;;;;;49.10;26.70;;;;;;;0.92;82.21;100497.24;131426;1301;22614;-79
2023/10/18 00:46:30;;;;;;;56.60;27.80;;;;;;;0.94;82.50;100502.52;130731;1301;22661;-80
2023/10/18 00:49:32;;;;;;;47.80;27.10;;;;;;;0.94;82.64;100505.11;130819;1301;22629;-78
2023/10/18 00:52:35;;;;;;;49.80;27.60;;;;;;;0.93;82.65;100503.95;130751;1301;22837;-79
2023/10/18 00:55:36;;;;;;;48.80;26.60;;;;;;;0.93;82.59;100498.55;130632;1302;23721;-78
2023/10/18 00:58:40;;;;;;;47.00;25.00;;;;;;;0.94;82.51;100495.37;130899;1301;22609;-79
2023/10/18 01:01:43;;;;;;;45.80;25.90;;;;;;;0.96;82.54;100501.16;130176;1295;25451;-79
2023/10/18 01:04:46;;;;;;;47.80;25.40;;;;;;;0.97;82.60;100496.40;130286;1295;22566;-78
2023/10/18 01:07:47;;;;;;;52.10;26.70;;;;;;;0.97;82.62;100492.59;130219;1301;25402;-79
2023/10/18 01:10:51;;;;;;;45.80;24.50;;;;;;;0.97;82.66;100493.58;130273;1301;22569;-79
2023/10/18 01:13:55;;;;;;;45.50;26.90;;;;;;;0.96;82.69;100482.67;130301;1295;22569;-78
2023/10/18 01:16:56;;;;;;;48.10;26.00;;;;;;;0.94;82.76;100476.92;130256;1294;23353;-79
2023/10/18 01:19:58;;;;;;;52.40;25.50;;;;;;;0.93;82.94;100477.47;130263;1301;22558;-78
2023/10/18 01:23:00;;;;;;;49.80;26.60;;;;;;;0.94;83.05;100475.98;130300;1301;23048;-78
2023/10/18 01:26:04;;;;;;;58.80;30.00;;;;;;;0.97;83.40;100475.80;132412;1298;22596;-78
2023/10/18 01:29:08;;;;;;;59.20;30.10;;;;;;;0.99;83.41;100477.77;132456;1301;26027;-79
2023/10/18 01:32:08;;;;;;;57.40;28.30;;;;;;;1.00;83.34;100471.95;130952;1301;22663;-79
2023/10/18 01:35:11;;;;;;;78.60;28.40;;;;;;;1.00;83.30;100468.63;130243;1301;22573;-78
2023/10/18 01:38:13;;;;;;;66.00;26.50;;;;;;;0.97;83.04;100464.83;130303;1298;22687;-81
2023/10/18 01:41:30;;;;;;;56.10;27.00;;;;;;;0.93;83.08;100461.50;130958;1301;22611;-79
2023/10/18 01:44:31;;;;;;;57.20;27.50;;;;;;;0.90;83.18;100459.17;132060;1301;22590;-78
2023/10/18 01:47:32;;;;;;;45.20;26.60;;;;;;;0.87;82.94;100463.74;130995;1301;22605;-78
2023/10/18 01:50:33;;;;;;;43.70;24.20;;;;;;;0.81;82.92;100462.53;131385;1301;23406;-78
2023/10/18 01:53:33;;;;;;;46.70;26.90;;;;;;;0.76;82.64;100463.23;131079;1294;25260;-78
2023/10/18 01:56:34;;;;;;;51.80;26.60;;;;;;;0.71;82.79;100464.38;130167;1301;23394;-81
2023/10/18 01:59:36;;;;;;;;;;;;;;;0.67;82.73;100458.71;130941;1301;22708;-79
2023/10/18 02:02:37;;;;;;;47.80;23.90;;;;;;;0.60;82.50;100461.05;130901;1301;22576;-79
2023/10/18 02:05:43;;;;;;;45.00;26.20;;;;;;;0.55;82.64;100458.92;130610;1301;25184;-78
2023/10/18 02:08:44;;;;;;;74.80;27.90;;;;;;;0.51;82.51;100457.25;130176;1295;22807;-80
2023/10/18 02:11:46;;;;;;;;;;;;;;;0.42;82.68;100460.60;130255;1301;22560;-78
2023/10/18 02:14:50;;;;;;;116.80;27.00;;;;;;;0.25;82.64;100456.73;132003;1301;22561;-80
2023/10/18 02:17:57;;;;;;;63.80;25.10;;;;;;;0.15;82.90;100450.06;130919;1301;22819;-79
2023/10/18 02:20:57;;;;;;;65.90;25.90;;;;;;;0.08;83.06;100440.17;130951;1298;22586;-79
2023/10/18 02:23:58;;;;;;;44.10;24.00;;;;;;;0.05;83.13;100442.97;131094;1301;22545;-78
2023/10/18 02:27:00;;;;;;;45.80;26.20;;;;;;;0.04;83.33;100441.67;131001;1300;22692;-79
2023/10/18 02:30:03;;;;;;;51.50;26.40;;;;;;;0.03;83.31;100434.41;130930;1301;22750;-79
2023/10/18 02:33:05;;;;;;;83.50;27.50;;;;;;;0.05;83.55;100435.02;130948;1301;23580;-79
2023/10/18 02:36:11;;;;;;;56.70;24.50;;;;;;;0.06;83.63;100439.11;130930;1298;25441;-80
2023/10/18 02:39:11;;;;;;;75.50;26.10;;;;;;;0.07;83.67;100435.04;131490;1298;22619;-79
2023/10/18 02:42:13;;;;;;;63.90;25.30;;;;;;;0.09;83.66;100434.23;131042;1295;24240;-78
2023/10/18 02:45:17;;;;;;;60.40;24.20;;;;;;;0.10;83.82;100436.93;131020;1301;22562;-79
2023/10/18 02:48:24;;;;;;;47.40;22.40;;;;;;;0.05;83.51;100438.30;131044;1301;25335;-79
2023/10/18 02:51:26;;;;;;;48.70;22.70;;;;;;;-0.04;83.49;100442.46;131740;1301;22630;-79
2023/10/18 02:54:29;;;;;;;46.20;22.20;;;;;;;-0.09;83.72;100440.30;130225;1297;22574;-79
2023/10/18 02:57:32;;;;;;;51.00;22.20;;;;;;;-0.15;83.54;100445.74;130008;1301;24464;-79
2023/10/18 03:00:37;;;;;;;47.30;21.30;;;;;;;-0.24;83.40;100453.58;130722;1298;22591;-78
2023/10/18 03:03:39;;;;;;;44.30;23.30;;;;;;;-0.30;83.61;100454.42;130307;1298;22665;-78
2023/10/18 03:06:42;;;;;;;48.80;24.30;;;;;;;-0.31;83.78;100456.90;130225;1301;22568;-79
2023/10/18 03:09:49;;;;;;;51.30;25.10;;;;;;;-0.28;84.00;100462.85;130362;1298;22612;-78
2023/10/18 03:12:49;;;;;;;48.00;25.40;;;;;;;-0.25;84.27;100468.77;130869;1301;22575;-80
2023/10/18 03:19:14;;;;;;;47.00;25.10;;;;;;;-0.23;83.91;100469.16;130870;1301;22555;-78
2023/10/18 03:22:19;;;;;;;44.30;25.40;;;;;;;-0.23;83.91;100466.35;131198;1301;22429;-78
2023/10/18 03:25:30;;;;;;;50.40;25.80;;;;;;;-0.20;83.98;100461.55;130836;1295;25369;-78
2023/10/18 03:28:34;;;;;;;54.90;26.10;;;;;;;-0.18;84.47;100460.48;130837;1293;22584;-78
2023/10/18 03:31:36;;;;;;;53.90;25.10;;;;;;;-0.17;84.15;100458.05;130138;1302;22978;-79
2023/10/18 03:34:41;;;;;;;49.00;26.90;;;;;;;-0.26;83.90;100452.29;130088;1294;22612;-78
2023/10/18 03:37:46;;;;;;;65.20;26.20;;;;;;;-0.24;84.40;100450.41;130179;1301;22753;-78
2023/10/18 03:40:56;;;;;;;62.90;27.60;;;;;;;-0.19;84.55;100447.18;130218;1298;22560;-79
2023/10/18 03:44:03;;;;;;;58.80;27.40;;;;;;;-0.17;84.71;100446.55;130190;1294;22615;-78
2023/10/18 03:47:12;;;;;;;72.80;26.40;;;;;;;-0.15;84.61;100445.37;130161;1294;25373;-78
2023/10/18 03:50:15;;;;;;;72.40;26.70;;;;;;;-0.12;84.77;100441.75;130169;1301;22952;-78
2023/10/18 03:53:18;;;;;;;77.00;26.90;;;;;;;-0.11;84.77;100432.25;130217;1296;23312;-78
2023/10/18 03:56:22;;;;;;;71.20;25.00;;;;;;;-0.14;84.58;100428.65;130282;1294;22573;-78
2023/10/18 03:59:24;;;;;;;94.50;25.30;;;;;;;-0.15;84.60;100431.48;130333;1301;25524;-79
2023/10/18 04:05:43;;;;;;;49.00;22.90;;;;;;;-0.11;85.29;100429.13;130413;1295;24374;-78
2023/10/18 04:08:43;;;;;;;60.90;23.80;;;;;;;-0.08;85.43;100415.41;131169;1294;24242;-78
2023/10/18 04:11:45;;;;;;;54.90;25.40;;;;;;;-0.08;85.37;100413.67;130013;1301;22733;-77
2023/10/18 04:15:49;;;;;;;70.60;26.30;;;;;;;-0.03;85.60;100416.14;130610;1301;22581;-78
2023/10/18 04:18:25;;;;;;;67.30;23.60;;;;;;;-0.10;85.32;100412.36;130178;1294;22988;-78
2023/10/18 04:21:27;;;;;;;52.10;26.20;;;;;;;-0.14;85.41;100406.75;130234;1298;22562;-79
2023/10/18 04:24:28;;;;;;;58.80;24.30;;;;;;;-0.14;85.36;100396.66;130244;1301;23372;-78
2023/10/18 04:27:29;;;;;;;;;;;;;;;-0.19;85.15;100393.63;130256;1294;25301;-78
2023/10/18 04:30:30;;;;;;;51.00;23.10;;;;;;;-0.24;85.37;100394.27;130245;1288;23389;-78
2023/10/18 04:33:53;;;;;;;64.60;23.20;;;;;;;-0.30;85.26;100394.65;130215;1294;22556;-78
2023/10/18 04:36:55;;;;;;;59.50;23.30;;;;;;;-0.37;85.45;100394.33;130492;1301;22579;-79
2023/10/18 04:39:57;;;;;;;52.80;24.20;;;;;;;-0.40;85.61;100393.48;131282;1294;22977;-81
2023/10/18 04:43:00;;;;;;;58.30;23.80;;;;;;;-0.39;85.84;100392.93;131214;1294;22583;-83
2023/10/18 04:46:14;;;;;;;67.50;25.40;;;;;;;-0.34;86.00;100389.84;131014;1295;22670;-80
2023/10/18 04:52:42;;;;;;;45.20;22.70;;;;;;;-0.41;85.85;100397.04;130523;1295;26665;-79
2023/10/18 04:55:46;;;;;;;45.90;22.50;;;;;;;-0.41;85.98;100393.73;130510;1291;22692;-79
2023/10/18 04:58:46;;;;;;;40.90;20.10;;;;;;;-0.37;86.24;100392.29;130488;1294;22597;-81
2023/10/18 05:04:57;;;;;;;58.30;28.40;;;;;;;-0.28;86.39;100401.81;131043;1294;22667;-82
2023/10/18 05:08:00;;;;;;;85.50;39.20;;;;;;;-0.23;86.60;100403.45;130931;1301;22692;-81
2023/10/18 05:14:35;;;;;;;123.20;55.50;;;;;;;-0.20;86.73;100404.63;130971;1294;24429;-82
2023/10/18 05:17:45;;;;;;;57.50;21.70;;;;;;;-0.22;86.88;100399.88;131039;1293;22593;-81
2023/10/18 05:20:47;;;;;;;86.20;27.80;;;;;;;-0.20;86.93;100394.73;131070;1301;24239;-81
2023/10/18 05:23:52;;;;;;;86.60;31.20;;;;;;;-0.17;86.76;100389.20;130965;1298;22581;-81
2023/10/18 05:26:55;;;;;;;115.20;31.80;;;;;;;-0.14;86.86;100394.75;130977;1294;25443;-81
2023/10/18 05:29:59;;;;;;;76.80;25.60;;;;;;;-0.10;86.78;100389.98;130999;1301;22601;-82
2023/10/18 05:36:10;;;;;;;50.80;24.40;;;;;;;-0.02;87.07;100397.31;131048;1301;25456;-82
2023/10/18 05:39:19;;;;;;;90.70;28.80;;;;;;;0.03;86.99;100402.58;130867;1300;22617;-81
2023/10/18 05:42:21;;;;;;;84.50;38.30;;;;;;;0.07;87.20;100397.28;130763;1293;192908;-80
2023/10/18 05:45:22;;;;;;;70.90;31.30;;;;;;;0.13;87.35;100397.98;130891;1301;22750;-81
2023/10/18 05:48:24;;;;;;;65.20;30.90;;;;;;;0.18;87.51;100403.05;130872;1301;22811;-80
2023/10/18 05:54:28;;;;;;;54.70;22.60;;;;;;;0.21;87.27;100396.62;130820;1298;22726;-80
2023/10/18 05:57:30;;;;;;;85.50;18.90;;;;;;;0.21;87.31;100400.23;130897;1301;22556;-79
2023/10/18 06:00:33;;;;;;;54.20;18.40;;;;;;;0.20;87.32;100401.21;130913;1301;22575;-79
2023/10/18 06:03:39;;;;;;;55.40;18.80;;;;;;;0.23;87.47;100399.25;130968;1294;22599;-81
2023/10/18 06:06:40;;;;;;;53.80;16.70;;;;;;;0.29;87.43;100393.50;130949;1301;22651;-81
2023/10/18 06:09:48;;;;;;;63.10;17.80;;;;;;;0.30;87.35;100393.60;130882;1297;23352;-80
2023/10/18 06:12:55;;;;;;;113.90;18.10;;;;;;;0.32;87.33;100395.61;131015;1301;23031;-80
2023/10/18 06:15:58;;;;;;;85.10;20.60;;;;;;;0.37;87.43;100395.08;131191;1295;24757;-81
2023/10/18 06:19:03;;;;;;;71.00;18.60;;;;;;;0.45;87.53;100392.21;130922;1301;25544;-79
2023/10/18 06:25:34;;;;;;;62.00;19.10;;;;;;;0.63;87.96;100383.02;130773;1297;22609;-82
2023/10/18 06:28:37;;;;;;;98.20;19.80;;;;;;;0.74;87.94;100381.33;131013;1298;25453;-80
2023/10/18 06:31:46;;;;;;;44.90;19.30;;;;;;;0.81;87.74;100386.77;131147;1301;22664;-82
2023/10/18 06:34:48;;;;;;;49.20;18.80;;;;;;;0.91;87.75;100395.23;130934;1301;24365;-81
2023/10/18 06:37:49;;;;;;;52.00;16.60;;;;;;;0.97;87.69;100389.78;131415;1294;22562;-82
2023/10/18 06:41:00;;;;;;;79.10;16.80;;;;;;;1.03;87.68;100394.41;130960;1301;23425;-82
2023/10/18 06:44:00;;;;;;;;;;;;;;;1.10;87.72;100395.20;130722;1298;23333;-80
2023/10/18 06:47:01;;;;;;;50.80;16.00;;;;;;;1.15;87.53;100396.66;130975;1301;25329;-80
2023/10/18 06:50:04;;;;;;;67.00;17.80;;;;;;;1.19;87.60;100398.96;130944;1294;22563;-80
2023/10/18 06:53:06;;;;;;;45.70;18.60;;;;;;;1.24;87.54;100406.80;131061;1301;22560;-81
2023/10/18 06:56:13;;;;;;;103.00;17.90;;;;;;;1.28;87.54;100403.23;130936;1301;22548;-80
2023/10/18 06:59:14;;;;;;;106.30;17.80;;;;;;;1.26;87.38;100407.59;131004;1301;22604;-80
2023/10/18 07:02:14;;;;;;;83.80;18.80;;;;;;;1.25;87.46;100408.63;130954;1295;22682;-81
2023/10/18 07:05:16;;;;;;;45.80;18.10;;;;;;;1.32;87.80;100406.33;130857;1302;22624;-80
2023/10/18 07:08:20;;;;;;;73.00;19.40;;;;;;;1.47;88.09;100404.45;131023;1301;23294;-80
2023/10/18 07:11:22;;;;;;;48.20;19.00;;;;;;;1.64;88.31;100401.27;131051;1295;22600;-80
2023/10/18 07:14:24;;;;;;;113.60;18.90;;;;;;;1.77;88.13;100399.64;130968;1295;22574;-81
2023/10/18 07:17:25;;;;;;;92.30;19.10;;;;;;;1.87;87.94;100400.70;131151;1301;22603;-80
2023/10/18 07:20:32;;;;;;;59.00;19.20;;;;;;;1.93;87.81;100400.83;130994;1301;22644;-82
2023/10/18 07:23:36;;;;;;;71.80;18.90;;;;;;;1.98;87.60;100399.10;131036;1301;22559;-80
2023/10/18 07:26:40;;;;;;;69.90;18.50;;;;;;;1.93;87.56;100398.77;130996;1301;25541;-81
2023/10/18 07:29:46;;;;;;;44.00;21.90;;;;;;;1.99;87.83;100398.31;130937;1301;22573;-80
2023/10/18 07:32:57;;;;;;;84.50;21.10;;;;;;;2.14;88.10;100395.73;130969;1301;22608;-83
2023/10/18 07:36:00;;;;;;;46.50;21.30;;;;;;;2.28;87.89;100394.94;130950;1298;23976;-80
2023/10/18 07:39:04;;;;;;;107.90;20.60;;;;;;;2.41;88.07;100392.30;130977;1289;23395;-80
2023/10/18 07:42:05;;;;;;;49.70;21.40;;;;;;;2.49;88.03;100389.63;130882;1301;22586;-80
2023/10/18 07:45:08;;;;;;;75.70;22.20;;;;;;;2.64;88.13;100389.25;130901;1301;22556;-83
2023/10/18 07:48:11;;;;;;;63.90;22.30;;;;;;;2.71;87.82;100390.02;130725;1295;22562;-81
2023/10/18 07:51:24;;;;;;;71.00;24.50;;;;;;;2.77;87.78;100390.59;130905;1301;25377;-83
2023/10/18 07:54:26;;;;;;;41.80;25.30;;;;;;;2.89;87.82;100390.44;130893;1301;22587;-80
2023/10/18 07:57:33;;;;;;;49.80;24.30;;;;;;;3.03;88.04;100385.72;130807;1302;22595;-81
2023/10/18 08:00:35;;;;;;;41.70;24.20;;;;;;;3.28;88.28;100389.36;130851;1301;22588;-81
2023/10/18 08:03:36;;;;;;;38.10;22.30;;;;;;;3.56;88.46;100384.27;131375;1301;23891;-81
2023/10/18 08:06:39;;;;;;;38.40;22.80;;;;;;;3.70;87.51;100392.02;130897;1301;25375;-81
2023/10/18 08:09:41;;;;;;;34.30;22.90;;;;;;;3.84;87.32;100388.99;131262;1305;22628;-81
2023/10/18 08:12:41;;;;;;;36.20;23.10;;;;;;;4.00;87.47;100391.98;130866;1301;22753;-81
2023/10/18 08:15:50;;;;;;;39.00;18.50;;;;;;;4.12;87.19;100383.55;130805;1301;24220;-81
2023/10/18 08:18:57;;;;;;;39.20;20.90;;;;;;;4.20;87.05;100384.31;130814;1301;24458;-80
2023/10/18 08:22:21;;;;;;;32.10;21.30;;;;;;;4.29;87.00;100383.80;130850;1301;24963;-82
2023/10/18 08:25:29;;;;;;;35.50;21.00;;;;;;;4.39;86.87;100376.13;130559;1301;26171;-81
2023/10/18 08:28:39;;;;;;;43.70;23.20;;;;;;;4.52;87.19;100373.96;131273;1301;22601;-82
2023/10/18 08:31:43;;;;;;;42.00;22.60;;;;;;;4.63;86.63;100373.25;130620;1294;23024;-80
2023/10/18 08:34:45;;;;;;;37.20;23.90;;;;;;;4.78;86.80;100366.27;130762;1285;22624;-83
2023/10/18 08:37:47;;;;;;;36.70;23.90;;;;;;;4.97;86.57;100363.42;130805;1301;22650;-81
2023/10/18 08:40:56;;;;;;;35.50;23.80;;;;;;;5.12;86.52;100361.73;130912;1297;25459;-81
2023/10/18 08:44:50;;;;;;;32.70;22.40;;;;;;;5.31;86.75;100363.62;130938;1301;24247;-80
2023/10/18 08:47:35;;;;;;;35.80;23.70;;;;;;;5.55;86.70;100358.52;130777;1285;23299;-82
2023/10/18 08:50:39;;;;;;;38.20;25.50;;;;;;;5.89;86.76;100358.29;130690;1294;25330;-80
2023/10/18 08:53:47;;;;;;;37.60;24.50;;;;;;;6.29;86.57;100357.52;130860;1294;24288;-81
2023/10/18 08:56:49;;;;;;;34.60;23.60;;;;;;;6.91;86.61;100355.96;130812;1301;24408;-82
2023/10/18 08:59:53;;;;;;;32.80;22.50;;;;;;;7.39;85.96;100352.98;130796;1304;22607;-81
2023/10/18 09:02:54;;;;;;;30.10;21.50;;;;;;;7.94;85.76;100352.83;130900;1301;23497;-84
2023/10/18 09:06:05;;;;;;;33.10;22.40;;;;;;;8.54;85.05;100344.52;130578;1301;22674;-82
2023/10/18 09:09:07;;;;;;;30.40;21.30;;;;;;;8.86;83.14;100338.20;130954;1301;25268;-82
2023/10/18 09:12:15;;;;;;;29.00;21.00;;;;;;;9.19;83.37;100335.71;130811;1291;23293;-81
2023/10/18 09:15:28;;;;;;;28.70;20.00;;;;;;;9.50;82.75;100339.45;130985;1298;22572;-80
2023/10/18 09:18:34;;;;;;;28.60;20.50;;;;;;;9.97;82.59;100334.98;130973;1301;25092;-82
2023/10/18 09:21:42;;;;;;;25.60;19.30;;;;;;;10.36;81.63;100333.00;131037;1301;26284;-81
2023/10/18 09:24:43;;;;;;;26.50;19.30;;;;;;;10.54;80.06;100330.95;131295;1298;22721;-80
2023/10/18 09:27:45;;;;;;;25.60;19.60;;;;;;;10.52;79.08;100329.75;131135;1301;22643;-80
2023/10/18 09:30:46;;;;;;;26.50;19.20;;;;;;;10.69;79.59;100330.98;131028;1301;26159;-83
2023/10/18 09:33:50;;;;;;;26.10;19.00;;;;;;;10.95;79.24;100330.63;131140;1298;22587;-81
2023/10/18 09:36:56;;;;;;;30.60;21.60;;;;;;;11.14;78.34;100331.95;130969;1302;25432;-82
2023/10/18 09:39:57;;;;;;;26.30;19.90;;;;;;;11.39;78.05;100329.63;131075;1301;25332;-80
2023/10/18 09:42:57;;;;;;;28.00;20.30;;;;;;;11.51;77.15;100325.34;130959;1301;22680;-85
2023/10/18 09:45:59;;;;;;;27.80;18.80;;;;;;;11.74;77.11;100330.19;131105;1294;24401;-80
2023/10/18 09:49:09;;;;;;;23.30;16.80;;;;;;;12.14;77.15;100325.29;131380;1301;22620;-80
2023/10/18 09:52:13;;;;;;;25.50;17.50;;;;;;;12.35;75.53;100313.20;131206;1285;22575;-84
2023/10/18 09:55:17;;;;;;;18.70;14.50;;;;;;;12.50;75.05;100310.06;131362;1301;23315;-81
2023/10/18 09:58:18;;;;;;;21.60;14.50;;;;;;;12.76;74.96;100307.28;131132;1301;23323;-82
2023/10/18 10:01:26;;;;;;;19.90;13.80;;;;;;;13.03;73.94;100304.65;131016;1301;22556;-82
2023/10/18 10:04:35;;;;;;;22.80;16.00;;;;;;;13.17;72.88;100294.65;131066;1301;22582;-82
2023/10/18 10:07:41;;;;;;;19.50;15.10;;;;;;;13.21;72.34;100290.66;131050;1295;22568;-83
2023/10/18 10:10:45;;;;;;;19.00;11.10;;;;;;;13.22;71.79;100285.77;131098;1301;22596;-85
2023/10/18 10:13:49;;;;;;;18.60;11.90;;;;;;;13.39;70.66;100277.77;131068;1298;22567;-84
2023/10/18 10:17:01;;;;;;;17.80;11.30;;;;;;;13.35;69.95;100269.19;131684;1285;22559;-84
2023/10/18 10:20:13;;;;;;;13.80;9.60;;;;;;;13.52;69.77;100261.69;130854;1301;22629;-85
2023/10/18 10:23:31;;;;;;;12.60;9.60;;;;;;;13.60;68.66;100261.78;130959;1301;24751;-85
2023/10/18 10:26:36;;;;;;;12.10;8.50;;;;;;;13.59;68.14;100253.36;130678;1301;22590;-85
2023/10/18 10:29:38;;;;;;;11.40;8.70;;;;;;;13.71;67.84;100251.05;130992;1303;22617;-86
2023/10/18 10:32:39;;;;;;;11.00;9.00;;;;;;;13.75;67.08;100245.30;130898;1301;23170;-82
2023/10/18 10:35:45;;;;;;;12.90;8.70;;;;;;;13.72;66.43;100243.78;130814;1301;22689;-83
2023/10/18 10:38:54;;;;;;;10.20;8.10;;;;;;;13.66;65.77;100233.60;130723;1295;23013;-84
2023/10/18 10:42:00;;;;;;;9.70;7.40;;;;;;;13.85;65.69;100226.77;130803;1302;22569;-84
2023/10/18 10:45:23;;;;;;;10.60;8.30;;;;;;;14.15;65.31;100220.65;130616;1292;22579;-81
2023/10/18 10:51:37;;;;;;;8.80;5.20;;;;;;;13.93;61.48;100220.29;131161;1294;22593;-82
2023/10/18 10:54:40;;;;;;;8.80;5.40;;;;;;;13.92;61.85;100216.88;130830;1301;22592;-82
2023/10/18 10:57:43;;;;;;;8.10;5.70;;;;;;;14.07;61.90;100208.27;131093;1295;22595;-81
2023/10/18 11:01:31;;;;;;;7.50;5.70;;;;;;;14.35;61.66;100205.92;131079;1301;22621;-83
2023/10/18 11:04:50;;;;;;;7.30;5.10;;;;;;;14.64;60.96;100201.60;130874;1301;22701;-81
2023/10/18 11:07:53;;;;;;;7.60;5.30;;;;;;;14.86;60.42;100193.04;130901;1301;22594;-81
2023/10/18 11:10:55;;;;;;;9.00;5.90;;;;;;;14.79;59.58;100192.05;131167;1301;22549;-82
2023/10/18 11:13:55;;;;;;;7.90;5.50;;;;;;;14.71;59.32;100183.67;130882;1295;22579;-82
2023/10/18 11:20:19;;;;;;;9.60;6.80;;;;;;;14.48;57.15;100177.14;131024;1301;22573;-82
2023/10/18 11:23:20;;;;;;;8.20;6.00;;;;;;;14.41;58.05;100173.00;131257;1301;22619;-81
2023/10/18 11:26:24;;;;;;;9.80;5.40;;;;;;;14.47;57.93;100165.21;130994;1301;25275;-81
2023/10/18 11:29:24;;;;;;;8.20;5.40;;;;;;;14.57;57.61;100163.05;131152;1301;22567;-81
2023/10/18 11:32:28;;;;;;;;;;;;;;;14.55;57.54;100159.98;131103;1301;22608;-83
2023/10/18 11:39:07;;;;;;;7.20;5.20;;;;;;;14.52;57.10;100150.01;130922;1295;22683;-81
2023/10/18 11:42:03;;;;;;;10.20;6.10;;;;;;;14.67;56.38;100152.45;131099;1301;22565;-80
2023/10/18 11:45:05;;;;;;;9.40;5.90;;;;;;;14.75;56.60;100146.64;131009;1301;22604;-80
2023/10/18 11:48:14;;;;;;;8.90;5.60;;;;;;;14.95;55.54;100141.16;131083;1298;22571;-81
2023/10/18 11:51:14;;;;;;;8.30;5.50;;;;;;;14.68;53.68;100139.85;131576;1301;22483;-82
2023/10/18 11:54:35;;;;;;;5.70;4.90;;;;;;;14.53;53.84;100134.85;131544;1298;24419;-81
2023/10/18 11:57:39;;;;;;;8.40;5.20;;;;;;;14.44;54.16;100131.88;130912;1302;22567;-81
2023/10/18 12:00:47;;;;;;;9.30;5.80;;;;;;;14.43;54.34;100126.82;131957;1301;22570;-81
2023/10/18 12:03:48;;;;;;;9.90;5.20;;;;;;;14.28;53.89;100121.30;131012;1301;22590;-81
2023/10/18 12:06:49;;;;;;;7.10;5.00;;;;;;;14.20;54.27;100121.44;131152;1299;23566;-81
2023/10/18 12:09:54;;;;;;;6.70;5.00;;;;;;;14.13;53.02;100117.95;131062;1301;23101;-81
2023/10/18 12:12:55;;;;;;;7.80;5.30;;;;;;;13.97;53.80;100114.95;131145;1301;22650;-82
2023/10/18 12:16:00;;;;;;;8.00;4.80;;;;;;;13.91;53.33;100109.10;131141;1301;22651;-81
2023/10/18 12:19:00;;;;;;;8.50;4.70;;;;;;;13.67;53.37;100117.66;131212;1301;22617;-81
2023/10/18 12:22:01;;;;;;;7.20;4.40;;;;;;;13.70;53.71;100110.55;131138;1301;23712;-81
2023/10/18 12:25:03;;;;;;;5.80;4.40;;;;;;;13.86;53.74;100096.82;131185;1298;22570;-82
2023/10/18 12:28:12;;;;;;;9.20;4.50;;;;;;;13.91;53.52;100092.33;130993;1301;22576;-80
2023/10/18 12:31:12;;;;;;;8.40;4.40;;;;;;;14.05;53.63;100085.05;131181;1298;27216;-81
2023/10/18 12:34:15;;;;;;;;;;;;;;;14.18;52.75;100091.08;131013;1301;22555;-81
2023/10/18 12:37:17;;;;;;;7.40;3.80;;;;;;;14.21;52.88;100093.64;131019;1298;24291;-84
2023/10/18 12:43:44;;;;;;;5.50;3.60;;;;;;;14.20;52.43;100076.98;130965;1302;22586;-82
2023/10/18 12:46:45;;;;;;;8.90;4.50;;;;;;;14.26;52.42;100080.68;131366;1301;25288;-81
2023/10/18 12:49:50;;;;;;;6.20;4.70;;;;;;;14.23;52.49;100073.55;131409;1301;22594;-80
2023/10/18 12:52:52;;;;;;;5.90;3.60;;;;;;;14.30;52.41;100070.86;130877;1301;22618;-81
2023/10/18 12:56:40;;;;;;;8.00;3.90;;;;;;;14.33;52.34;100066.25;130680;1301;23425;-84
2023/10/18 12:59:22;;;;;;;7.10;3.60;;;;;;;14.32;51.83;100058.73;130475;1301;22600;-81
2023/10/18 13:02:48;;;;;;;5.50;3.40;;;;;;;14.18;51.73;100052.19;131482;1301;23338;-83
2023/10/18 13:05:51;;;;;;;7.90;4.10;;;;;;;14.02;50.75;100052.26;130739;1295;22607;-82
2023/10/18 13:12:16;;;;;;;5.80;3.50;;;;;;;13.64;50.65;100043.90;130780;1295;25173;-81
2023/10/18 13:15:16;;;;;;;7.00;3.70;;;;;;;13.36;51.38;100040.42;130785;1301;22575;-81
2023/10/18 13:18:17;;;;;;;5.00;3.80;;;;;;;13.26;51.04;100036.65;130971;1294;24281;-81
2023/10/18 13:21:20;;;;;;;10.40;4.00;;;;;;;13.08;51.31;100028.52;130838;1297;22605;-81
2023/10/18 13:27:36;;;;;;;7.40;4.00;;;;;;;12.87;51.24;100025.67;130874;1301;22599;-82
2023/10/18 13:33:41;;;;;;;6.70;3.80;;;;;;;12.67;51.41;100013.14;130828;1302;24552;-81
2023/10/18 13:36:49;;;;;;;6.80;3.90;;;;;;;12.74;51.53;100010.08;130830;1301;22561;-83
2023/10/18 13:39:51;;;;;;;8.70;3.30;;;;;;;12.72;51.26;100007.20;130861;1301;22568;-82
2023/10/18 13:42:52;;;;;;;7.90;3.50;;;;;;;12.59;51.42;100008.56;130848;1302;22617;-81
2023/10/18 13:45:57;;;;;;;10.40;4.10;;;;;;;12.47;52.06;100008.59;130942;1302;22585;-82
2023/10/18 13:48:58;;;;;;;5.90;3.40;;;;;;;12.43;52.48;100009.55;130908;1295;22603;-81
2023/10/18 13:51:59;;;;;;;6.30;3.60;;;;;;;12.39;52.32;100004.48;130742;1298;22590;-81
2023/10/18 13:55:00;;;;;;;8.60;3.90;;;;;;;12.29;52.32;99998.15;130721;1302;22595;-83
2023/10/18 13:58:00;;;;;;;;;;;;;;;12.21;52.57;99997.30;130938;1301;23363;-81
2023/10/18 14:01:05;;;;;;;11.30;4.90;;;;;;;12.12;52.92;99992.73;131014;1301;22570;-81
2023/10/18 14:04:08;;;;;;;8.50;4.40;;;;;;;12.05;52.88;99991.16;130876;1298;22562;-84
2023/10/18 14:07:08;;;;;;;5.60;3.30;;;;;;;11.97;53.48;99988.80;130749;1298;23835;-82
2023/10/18 14:10:27;;;;;;;6.20;3.80;;;;;;;11.87;53.05;99982.48;130970;1301;23506;-82
2023/10/18 14:13:28;;;;;;;6.30;3.60;;;;;;;11.73;53.09;99975.89;130951;1298;22586;-82
2023/10/18 14:16:28;;;;;;;7.30;4.20;;;;;;;11.68;53.57;99973.70;130953;1298;22650;-81
2023/10/18 14:19:32;;;;;;;6.40;3.80;;;;;;;11.64;53.20;99972.41;130700;1301;22563;-83
2023/10/18 14:22:33;;;;;;;3.80;3.20;;;;;;;11.59;53.55;99967.82;130709;1298;22642;-84
2023/10/18 14:25:37;;;;;;;4.10;3.40;;;;;;;11.57;53.37;99967.01;130488;1303;22618;-82
2023/10/18 14:28:42;;;;;;;5.30;4.00;;;;;;;11.51;52.87;99964.85;130940;1301;25383;-81
2023/10/18 14:31:43;;;;;;;5.60;3.90;;;;;;;11.43;53.04;99967.45;130879;1301;22650;-82
2023/10/18 14:34:43;;;;;;;7.40;3.60;;;;;;;11.38;53.39;99967.59;130506;1302;22594;-82
2023/10/18 14:37:45;;;;;;;8.00;3.40;;;;;;;11.32;53.68;99965.77;130848;1297;25390;-82
2023/10/18 14:40:46;;;;;;;4.60;3.30;;;;;;;11.27;53.84;99962.27;130516;1304;22573;-82
2023/10/18 14:43:48;;;;;;;;;;;;;;;11.23;53.87;99959.92;130816;1307;22802;-83
2023/10/18 14:46:48;;;;;;;5.10;2.90;;;;;;;11.16;54.29;99955.87;130864;1301;22584;-81
2023/10/18 14:49:49;;;;;;;5.20;3.10;;;;;;;11.09;54.27;99954.77;130862;1301;22678;-81
2023/10/18 14:52:49;;;;;;;8.20;3.90;;;;;;;11.04;54.53;99948.96;130920;1305;22595;-81